Time;durP1;ratioP1;P1;durP2;ratioP2;P2;SDS_P1;SDS_P2;PMS_P1;PMS_P2;Temp;Humidity;BMP_temperature;BMP_pressure;BME280_temperature;BME280_humidity;BME280_pressure;Samples;Min_cycle;Max_cycle;Signal;HPM_P1;HPM_P2
2023/06/01 00:03:48;;;;;;;10.77;5.63;;;;;;;;;;10421172;28;20021;-71
2023/06/01 00:08:48;;;;;;;9.50;7.10;;;;;;;;;;10421069;28;20043;-70
2023/06/01 00:13:49;;;;;;;12.70;6.93;;;;;;;;;;10419101;28;20045;-70
2023/06/01 00:18:52;;;;;;;11.43;6.78;;;;;;;;;;10420193;28;20029;-71
2023/06/01 00:23:52;;;;;;;14.02;7.28;;;;;;;;;;10420490;28;20036;-71
2023/06/01 00:28:52;;;;;;;10.48;6.72;;;;;;;;;;10419689;28;20029;-71
2023/06/01 00:33:53;;;;;;;15.80;6.90;;;;;;;;;;10419721;28;20227;-71
2023/06/01 00:38:53;;;;;;;11.13;6.90;;;;;;;;;;10419151;28;20315;-72
2023/06/01 00:43:53;;;;;;;8.45;5.68;;;;;;;;;;10419506;28;20029;-71
2023/06/01 00:48:54;;;;;;;10.27;7.10;;;;;;;;;;10419525;28;20039;-70
2023/06/01 00:53:54;;;;;;;11.63;5.88;;;;;;;;;;10419743;28;20033;-72
2023/06/01 00:58:54;;;;;;;14.23;6.28;;;;;;;;;;10418872;28;20069;-72
2023/06/01 01:03:58;;;;;;;10.13;5.97;;;;;;;;;;10419049;28;20270;-71
2023/06/01 01:09:10;;;;;;;11.63;6.13;;;;;;;;;;10418445;28;20029;-72
2023/06/01 01:14:22;;;;;;;8.75;6.20;;;;;;;;;;10418762;28;20053;-72
2023/06/01 01:19:35;;;;;;;9.85;6.20;;;;;;;;;;10418481;28;20041;-72
2023/06/01 01:25:02;;;;;;;10.02;6.38;;;;;;;;;;10418292;28;20076;-71
2023/06/01 01:30:05;;;;;;;12.52;7.07;;;;;;;;;;10413710;28;20130;-71
2023/06/01 01:35:07;;;;;;;14.25;6.30;;;;;;;;;;10417334;28;20200;-72
2023/06/01 01:40:08;;;;;;;8.95;6.60;;;;;;;;;;10417663;28;20029;-71
2023/06/01 01:45:08;;;;;;;12.98;5.93;;;;;;;;;;10417323;28;20029;-72
2023/06/01 01:50:10;;;;;;;11.48;6.97;;;;;;;;;;10417983;28;20033;-72
2023/06/01 01:55:11;;;;;;;11.27;6.70;;;;;;;;;;10413568;28;20030;-70
2023/06/01 02:00:12;;;;;;;17.15;7.85;;;;;;;;;;10416670;28;20343;-71
2023/06/01 02:05:12;;;;;;;14.55;8.45;;;;;;;;;;10416747;28;20452;-71
2023/06/01 02:10:13;;;;;;;22.05;9.90;;;;;;;;;;10416694;28;20159;-71
2023/06/01 02:15:13;;;;;;;26.38;9.65;;;;;;;;;;10416319;28;20029;-70
2023/06/01 02:20:14;;;;;;;23.25;9.90;;;;;;;;;;10416116;28;20028;-71
2023/06/01 02:25:14;;;;;;;18.13;11.10;;;;;;;;;;10416043;28;20032;-70
2023/06/01 02:30:15;;;;;;;17.97;11.13;;;;;;;;;;10415989;28;20041;-72
2023/06/01 02:35:15;;;;;;;25.25;12.23;;;;;;;;;;10415512;28;20036;-72
2023/06/01 02:40:15;;;;;;;20.02;11.80;;;;;;;;;;10415820;28;20290;-72
2023/06/01 02:45:16;;;;;;;25.23;10.70;;;;;;;;;;10415516;28;20030;-71
2023/06/01 02:50:16;;;;;;;19.63;10.47;;;;;;;;;;10415070;28;20043;-71
2023/06/01 02:55:16;;;;;;;20.23;9.98;;;;;;;;;;10415193;28;20021;-72
2023/06/01 03:00:17;;;;;;;15.05;9.60;;;;;;;;;;10415788;28;20045;-71
2023/06/01 03:05:17;;;;;;;17.58;9.25;;;;;;;;;;10414996;28;20032;-72
2023/06/01 03:10:17;;;;;;;16.20;9.48;;;;;;;;;;10415102;28;20235;-71
2023/06/01 03:15:17;;;;;;;12.57;7.45;;;;;;;;;;10414955;28;20266;-71
2023/06/01 03:20:18;;;;;;;11.88;7.78;;;;;;;;;;10414368;28;20029;-73
2023/06/01 03:25:18;;;;;;;16.87;7.93;;;;;;;;;;10414615;28;20036;-74
2023/06/01 03:30:18;;;;;;;13.48;7.85;;;;;;;;;;10388516;28;20271;-72
2023/06/01 03:35:19;;;;;;;12.27;7.63;;;;;;;;;;10413642;28;20033;-73
2023/06/01 03:40:19;;;;;;;16.45;8.07;;;;;;;;;;10411504;28;20339;-74
2023/06/01 03:45:19;;;;;;;15.88;8.40;;;;;;;;;;10405171;28;20037;-75
2023/06/01 03:50:20;;;;;;;14.98;9.23;;;;;;;;;;10411817;28;20029;-76
2023/06/01 03:55:20;;;;;;;19.45;10.25;;;;;;;;;;10415149;28;20319;-80
2023/06/01 04:00:22;;;;;;;14.52;8.52;;;;;;;;;;10420535;28;20036;-78
2023/06/01 04:05:24;;;;;;;15.43;8.02;;;;;;;;;;10422427;28;20038;-78
2023/06/01 04:10:24;;;;;;;15.10;7.63;;;;;;;;;;10420607;28;20050;-76
2023/06/01 04:15:25;;;;;;;20.02;7.40;;;;;;;;;;10420487;28;20049;-77
2023/06/01 04:20:25;;;;;;;13.00;7.85;;;;;;;;;;10421421;28;20075;-77
2023/06/01 04:25:28;;;;;;;14.00;7.15;;;;;;;;;;10421151;28;20029;-79
2023/06/01 04:30:28;;;;;;;10.73;6.68;;;;;;;;;;10420026;28;20103;-77
2023/06/01 04:35:28;;;;;;;8.15;5.97;;;;;;;;;;10420211;28;20030;-76
2023/06/01 04:40:29;;;;;;;8.85;6.18;;;;;;;;;;10419175;28;20223;-75
2023/06/01 04:45:33;;;;;;;8.75;5.78;;;;;;;;;;10417570;28;20369;-77
2023/06/01 04:50:34;;;;;;;10.00;6.75;;;;;;;;;;10417374;28;20488;-78
2023/06/01 04:55:35;;;;;;;11.43;7.18;;;;;;;;;;10417784;28;20037;-77
2023/06/01 05:00:35;;;;;;;14.33;7.93;;;;;;;;;;10419319;28;20021;-78
2023/06/01 05:05:35;;;;;;;15.90;8.25;;;;;;;;;;10419393;28;20267;-77
2023/06/01 05:10:36;;;;;;;19.95;11.48;;;;;;;;;;10417612;28;20037;-77
2023/06/01 05:15:36;;;;;;;25.08;15.07;;;;;;;;;;10418450;28;20076;-77
2023/06/01 05:20:37;;;;;;;26.77;13.98;;;;;;;;;;10418364;28;20274;-77
2023/06/01 05:25:37;;;;;;;16.65;9.93;;;;;;;;;;10417361;28;20254;-76
2023/06/01 05:30:37;;;;;;;22.13;8.87;;;;;;;;;;10418229;28;20060;-77
2023/06/01 05:35:41;;;;;;;17.73;8.60;;;;;;;;;;10418150;28;20057;-77
2023/06/01 05:40:41;;;;;;;12.35;7.47;;;;;;;;;;10417234;28;20034;-74
2023/06/01 05:45:41;;;;;;;15.30;7.90;;;;;;;;;;10391278;28;20105;-77
2023/06/01 05:50:41;;;;;;;22.98;8.57;;;;;;;;;;10394323;28;20033;-76
2023/06/01 05:55:42;;;;;;;19.65;9.02;;;;;;;;;;10415543;28;20087;-77
2023/06/01 06:00:42;;;;;;;19.55;8.75;;;;;;;;;;10413890;28;20061;-76
2023/06/01 06:05:42;;;;;;;16.63;9.30;;;;;;;;;;10413583;28;20033;-77
2023/06/01 06:10:43;;;;;;;23.10;10.00;;;;;;;;;;10422434;28;20469;-76
2023/06/01 06:15:43;;;;;;;22.20;9.40;;;;;;;;;;10453992;28;20024;-76
2023/06/01 06:20:43;;;;;;;17.53;8.17;;;;;;;;;;10449534;28;20017;-76
2023/06/01 06:25:45;;;;;;;20.27;8.60;;;;;;;;;;10416057;28;20097;-76
2023/06/01 06:30:45;;;;;;;19.00;9.57;;;;;;;;;;10415350;28;20092;-77
2023/06/01 06:35:46;;;;;;;19.58;9.75;;;;;;;;;;10415288;28;20033;-76
2023/06/01 06:40:46;;;;;;;24.67;9.83;;;;;;;;;;10415251;28;20069;-77
2023/06/01 06:45:46;;;;;;;15.20;8.63;;;;;;;;;;10414634;28;20021;-75
2023/06/01 06:50:47;;;;;;;19.50;8.73;;;;;;;;;;10417851;28;20020;-77
2023/06/01 06:55:47;;;;;;;15.57;7.93;;;;;;;;;;10456197;28;20070;-74
2023/06/01 07:00:47;;;;;;;16.08;7.68;;;;;;;;;;10416152;28;20022;-75
2023/06/01 07:05:48;;;;;;;16.55;8.00;;;;;;;;;;10414810;28;20033;-75
2023/06/01 07:10:48;;;;;;;11.68;7.05;;;;;;;;;;10405062;28;20395;-75
2023/06/01 07:15:48;;;;;;;17.37;8.70;;;;;;;;;;10373916;28;20235;-75
2023/06/01 07:20:48;;;;;;;18.83;7.20;;;;;;;;;;10373769;28;20033;-76
2023/06/01 07:25:49;;;;;;;16.73;8.30;;;;;;;;;;10408639;28;20324;-76
2023/06/01 07:30:49;;;;;;;16.70;8.63;;;;;;;;;;10402676;28;20081;-74
2023/06/01 07:35:52;;;;;;;13.65;8.40;;;;;;;;;;10379594;28;20307;-75
2023/06/01 07:40:53;;;;;;;15.90;8.85;;;;;;;;;;10380412;28;20091;-75
2023/06/01 07:45:53;;;;;;;20.27;11.27;;;;;;;;;;10420865;28;20045;-75
2023/06/01 07:50:53;;;;;;;25.48;11.43;;;;;;;;;;10402441;28;20029;-76
2023/06/01 07:55:55;;;;;;;24.85;12.38;;;;;;;;;;10377870;28;20029;-76
2023/06/01 08:00:55;;;;;;;25.50;13.57;;;;;;;;;;10377595;28;20236;-75
2023/06/01 08:05:57;;;;;;;26.05;14.40;;;;;;;;;;10378221;28;20092;-75
2023/06/01 08:10:57;;;;;;;29.20;13.13;;;;;;;;;;10379897;28;20049;-76
2023/06/01 08:15:58;;;;;;;21.27;12.52;;;;;;;;;;10380148;28;20050;-76
2023/06/01 08:21:00;;;;;;;21.43;13.83;;;;;;;;;;10379640;28;20299;-75
2023/06/01 08:26:00;;;;;;;29.70;13.43;;;;;;;;;;10379734;28;20320;-74
2023/06/01 08:31:00;;;;;;;23.17;12.10;;;;;;;;;;10379121;28;20033;-75
2023/06/01 08:36:01;;;;;;;22.73;12.48;;;;;;;;;;10378955;28;20021;-76
2023/06/01 08:41:09;;;;;;;25.10;13.03;;;;;;;;;;10377748;28;20336;-76
2023/06/01 08:46:10;;;;;;;25.13;12.30;;;;;;;;;;10378482;28;20030;-76
2023/06/01 08:51:11;;;;;;;25.75;12.75;;;;;;;;;;10378128;28;20093;-77
2023/06/01 08:56:11;;;;;;;18.80;10.85;;;;;;;;;;10377688;28;20312;-76
2023/06/01 09:01:19;;;;;;;25.63;13.00;;;;;;;;;;10378255;28;20064;-75
2023/06/01 09:06:19;;;;;;;21.58;11.82;;;;;;;;;;10378341;28;20319;-74
2023/06/01 09:11:20;;;;;;;19.80;10.63;;;;;;;;;;10377183;28;20141;-75
2023/06/01 09:16:20;;;;;;;19.10;10.43;;;;;;;;;;10373964;28;20255;-76
2023/06/01 09:21:21;;;;;;;21.07;11.00;;;;;;;;;;10374228;28;20265;-76
2023/06/01 09:26:25;;;;;;;18.87;10.90;;;;;;;;;;10374128;28;20368;-76
2023/06/01 09:31:41;;;;;;;12.87;8.00;;;;;;;;;;10376894;28;20284;-74
2023/06/01 09:36:41;;;;;;;14.48;9.70;;;;;;;;;;10376878;28;20041;-75
2023/06/01 09:41:55;;;;;;;17.70;8.80;;;;;;;;;;10376783;28;20219;-76
2023/06/01 09:46:56;;;;;;;18.50;8.25;;;;;;;;;;10358632;28;20296;-75
2023/06/01 09:52:06;;;;;;;15.82;7.80;;;;;;;;;;10395293;28;20044;-77
2023/06/01 09:57:06;;;;;;;15.80;8.20;;;;;;;;;;10375810;28;20034;-76
2023/06/01 10:02:07;;;;;;;12.90;7.13;;;;;;;;;;10376160;28;20454;-75
2023/06/01 10:07:10;;;;;;;11.23;6.35;;;;;;;;;;10375148;28;20029;-77
2023/06/01 10:12:11;;;;;;;11.27;6.95;;;;;;;;;;10395951;28;20080;-76
2023/06/01 10:17:14;;;;;;;12.57;5.37;;;;;;;;;;10415904;28;20197;-75
2023/06/01 10:22:15;;;;;;;9.82;4.15;;;;;;;;;;10416187;28;20041;-75
2023/06/01 10:27:21;;;;;;;9.57;4.00;;;;;;;;;;10415710;28;20533;-75
2023/06/01 10:32:36;;;;;;;6.05;4.43;;;;;;;;;;10414155;28;20033;-76
2023/06/01 10:37:36;;;;;;;7.68;5.22;;;;;;;;;;10415153;28;20033;-76
2023/06/01 10:42:37;;;;;;;9.15;3.83;;;;;;;;;;10415564;28;20070;-75
2023/06/01 10:47:38;;;;;;;9.38;4.38;;;;;;;;;;10415102;28;20100;-75
2023/06/01 10:52:38;;;;;;;8.50;3.70;;;;;;;;;;10414535;28;20033;-75
2023/06/01 10:57:39;;;;;;;13.40;4.53;;;;;;;;;;10415026;28;20342;-76
2023/06/01 11:02:46;;;;;;;12.07;4.95;;;;;;;;;;10410343;28;20025;-75
2023/06/01 11:07:47;;;;;;;11.90;4.93;;;;;;;;;;10373388;28;20038;-76
2023/06/01 11:13:08;;;;;;;11.25;4.50;;;;;;;;;;10400351;28;20132;-76
2023/06/01 11:18:28;;;;;;;9.70;4.22;;;;;;;;;;10413916;28;20049;-76
2023/06/01 11:23:29;;;;;;;9.98;3.92;;;;;;;;;;10414676;28;20030;-76
2023/06/01 11:28:31;;;;;;;12.17;3.80;;;;;;;;;;10414946;28;20022;-75
2023/06/01 11:33:31;;;;;;;9.75;3.72;;;;;;;;;;10414116;28;20419;-78
2023/06/01 11:38:32;;;;;;;18.80;5.80;;;;;;;;;;10413732;28;20025;-77
2023/06/01 11:43:33;;;;;;;10.27;4.72;;;;;;;;;;10414573;28;20185;-77
2023/06/01 11:48:34;;;;;;;15.05;5.43;;;;;;;;;;10414097;28;20053;-75
2023/06/01 11:53:34;;;;;;;17.52;6.20;;;;;;;;;;10413768;28;20032;-72
2023/06/01 11:58:34;;;;;;;13.60;5.60;;;;;;;;;;10413848;28;20026;-74
2023/06/01 12:03:44;;;;;;;16.00;4.97;;;;;;;;;;10411752;28;20323;-73
2023/06/01 12:08:44;;;;;;;10.43;6.38;;;;;;;;;;10409520;28;20037;-73
2023/06/01 12:13:47;;;;;;;9.90;6.73;;;;;;;;;;10385497;28;20045;-72
2023/06/01 12:18:47;;;;;;;15.45;8.20;;;;;;;;;;10407845;28;20248;-70
2023/06/01 12:23:51;;;;;;;9.90;6.77;;;;;;;;;;10392247;28;20124;-71
2023/06/01 12:28:55;;;;;;;17.38;6.47;;;;;;;;;;10404020;28;20038;-71
2023/06/01 12:33:56;;;;;;;9.25;5.75;;;;;;;;;;10393491;28;20033;-70
2023/06/01 12:38:58;;;;;;;12.80;6.93;;;;;;;;;;10395458;28;20216;-71
2023/06/01 12:43:59;;;;;;;14.45;7.10;;;;;;;;;;10397185;28;20089;-71
2023/06/01 12:49:14;;;;;;;14.50;7.35;;;;;;;;;;10393099;28;20033;-71
2023/06/01 12:54:15;;;;;;;13.77;6.28;;;;;;;;;;10394728;28;20135;-70
2023/06/01 12:59:15;;;;;;;12.75;7.38;;;;;;;;;;10392725;28;20036;-70
2023/06/01 13:04:15;;;;;;;20.03;8.13;;;;;;;;;;10390112;28;20089;-70
2023/06/01 13:09:18;;;;;;;14.82;6.32;;;;;;;;;;10391654;28;20024;-71
2023/06/01 13:14:18;;;;;;;10.98;6.07;;;;;;;;;;10394042;28;20041;-71
2023/06/01 13:19:18;;;;;;;11.35;5.95;;;;;;;;;;10391366;28;20038;-71
2023/06/01 13:24:19;;;;;;;12.73;6.47;;;;;;;;;;10395730;28;20088;-71
2023/06/01 13:29:19;;;;;;;7.07;3.47;;;;;;;;;;10395072;28;20378;-71
2023/06/01 13:34:20;;;;;;;8.55;3.75;;;;;;;;;;10397016;28;20022;-73
2023/06/01 13:39:21;;;;;;;6.18;3.10;;;;;;;;;;10395764;28;20100;-72
2023/06/01 13:44:21;;;;;;;9.90;5.20;;;;;;;;;;10391865;28;20036;-72
2023/06/01 13:49:22;;;;;;;5.07;3.30;;;;;;;;;;10398484;28;20044;-70
2023/06/01 13:54:22;;;;;;;7.40;3.90;;;;;;;;;;10391383;28;20033;-70
2023/06/01 13:59:22;;;;;;;6.22;3.67;;;;;;;;;;10386185;28;20529;-71
2023/06/01 14:04:23;;;;;;;8.07;3.65;;;;;;;;;;10390149;28;20057;-71
2023/06/01 14:09:23;;;;;;;9.17;4.80;;;;;;;;;;10383205;28;20311;-72
2023/06/01 14:14:23;;;;;;;6.45;3.85;;;;;;;;;;10388196;28;20026;-71
2023/06/01 14:19:26;;;;;;;8.05;4.32;;;;;;;;;;10400322;28;20040;-71
2023/06/01 14:24:26;;;;;;;13.63;5.05;;;;;;;;;;10394902;28;20220;-71
2023/06/01 14:29:27;;;;;;;7.75;5.07;;;;;;;;;;10389173;28;20102;-71
2023/06/01 14:34:27;;;;;;;9.77;4.87;;;;;;;;;;10398406;28;20390;-72
2023/06/01 14:39:28;;;;;;;12.32;4.95;;;;;;;;;;10414987;28;20067;-73
2023/06/01 14:44:28;;;;;;;9.48;4.38;;;;;;;;;;10415000;28;20026;-72
2023/06/01 14:49:28;;;;;;;12.68;4.40;;;;;;;;;;10389226;28;20038;-73
2023/06/01 14:54:29;;;;;;;8.00;4.17;;;;;;;;;;10384047;28;20308;-74
2023/06/01 14:59:29;;;;;;;8.90;5.38;;;;;;;;;;10414516;28;20284;-72
2023/06/01 15:04:29;;;;;;;8.98;5.38;;;;;;;;;;10414527;28;20037;-73
2023/06/01 15:09:30;;;;;;;7.43;4.43;;;;;;;;;;10414394;28;20045;-73
2023/06/01 15:14:30;;;;;;;8.27;5.20;;;;;;;;;;10414561;28;20225;-72
2023/06/01 15:19:30;;;;;;;7.80;4.70;;;;;;;;;;10414278;28;20041;-72
2023/06/01 15:24:31;;;;;;;9.35;4.53;;;;;;;;;;10379064;28;20049;-70
2023/06/01 15:29:31;;;;;;;10.67;5.20;;;;;;;;;;10381113;28;20032;-70
2023/06/01 15:34:31;;;;;;;8.45;4.30;;;;;;;;;;10391743;28;20215;-70
2023/06/01 15:39:33;;;;;;;16.85;5.32;;;;;;;;;;10379477;28;20049;-76
2023/06/01 15:44:33;;;;;;;7.57;5.05;;;;;;;;;;10379045;28;20034;-70
2023/06/01 15:49:34;;;;;;;7.97;5.13;;;;;;;;;;10383930;28;20030;-68
2023/06/01 15:54:34;;;;;;;9.33;5.20;;;;;;;;;;10386736;28;20334;-69
2023/06/01 15:59:35;;;;;;;6.85;4.72;;;;;;;;;;10384463;28;20369;-69
2023/06/01 16:04:35;;;;;;;8.57;5.07;;;;;;;;;;10387635;28;20065;-70
2023/06/01 16:09:35;;;;;;;11.73;5.72;;;;;;;;;;10389034;28;20061;-69
2023/06/01 16:15:55;;;;;;;12.93;4.85;;;;;;;;;;10393580;28;20199;-75
2023/06/01 16:20:24;;;;;;;10.20;5.45;;;;;;;;;;10380329;28;20613;-72
2023/06/01 16:25:26;;;;;;;8.37;4.80;;;;;;;;;;10386873;28;20037;-69
2023/06/01 16:30:26;;;;;;;13.27;5.30;;;;;;;;;;10393173;28;20025;-77
2023/06/01 16:35:27;;;;;;;10.35;6.97;;;;;;;;;;10389705;28;20029;-68
2023/06/01 16:40:27;;;;;;;10.27;6.20;;;;;;;;;;10383061;28;20026;-69
2023/06/01 16:45:27;;;;;;;9.68;5.75;;;;;;;;;;10382805;28;20334;-72
2023/06/01 16:50:28;;;;;;;12.07;6.10;;;;;;;;;;10383737;28;20032;-73
2023/06/01 16:55:28;;;;;;;10.07;5.75;;;;;;;;;;10379384;28;20058;-76
2023/06/01 17:00:37;;;;;;;15.25;6.65;;;;;;;;;;10381875;28;20030;-74
2023/06/01 17:05:57;;;;;;;;;;;;;;;;;;;;;
2023/06/01 17:10:57;;;;;;;12.15;6.07;;;;;;;;;;10380707;28;20076;-74
2023/06/01 17:15:57;;;;;;;10.43;5.78;;;;;;;;;;10386497;28;20048;-75
2023/06/01 17:20:58;;;;;;;9.17;6.20;;;;;;;;;;10388975;28;20044;-71
2023/06/01 17:25:58;;;;;;;13.77;6.88;;;;;;;;;;10378757;28;20034;-68
2023/06/01 17:30:58;;;;;;;15.73;6.90;;;;;;;;;;10380291;28;20092;-70
2023/06/01 17:35:59;;;;;;;10.30;6.00;;;;;;;;;;10383016;28;20108;-70
2023/06/01 17:40:59;;;;;;;9.00;5.85;;;;;;;;;;10380572;28;20021;-69
2023/06/01 17:45:59;;;;;;;11.30;6.30;;;;;;;;;;10378229;28;20260;-69
2023/06/01 17:50:59;;;;;;;15.68;7.90;;;;;;;;;;10377899;28;20383;-71
2023/06/01 17:56:00;;;;;;;16.42;8.77;;;;;;;;;;10385785;28;20048;-68
2023/06/01 18:01:00;;;;;;;17.10;8.07;;;;;;;;;;10383374;28;20037;-69
2023/06/01 18:06:00;;;;;;;19.40;8.38;;;;;;;;;;10387163;28;20034;-68
2023/06/01 18:11:06;;;;;;;16.30;7.97;;;;;;;;;;10399553;28;20093;-69
2023/06/01 18:16:06;;;;;;;20.35;9.40;;;;;;;;;;10382284;28;20068;-70
2023/06/01 18:21:07;;;;;;;18.65;8.00;;;;;;;;;;10380954;28;20037;-70
2023/06/01 18:26:09;;;;;;;20.27;8.63;;;;;;;;;;10380235;28;20045;-69
2023/06/01 18:31:10;;;;;;;12.35;7.13;;;;;;;;;;10379231;28;20033;-70
2023/06/01 18:36:11;;;;;;;11.88;7.15;;;;;;;;;;10375211;28;20037;-70
2023/06/01 18:41:12;;;;;;;10.88;6.32;;;;;;;;;;10375674;28;20050;-71
2023/06/01 18:46:12;;;;;;;14.73;6.77;;;;;;;;;;10397706;28;20028;-71
2023/06/01 18:51:13;;;;;;;11.48;6.50;;;;;;;;;;10379246;28;20272;-71
2023/06/01 18:56:13;;;;;;;11.75;7.75;;;;;;;;;;10379090;28;20064;-69
2023/06/01 19:01:14;;;;;;;14.63;7.43;;;;;;;;;;10379306;28;20026;-70
2023/06/01 19:06:14;;;;;;;12.17;6.27;;;;;;;;;;10378031;28;20279;-70
2023/06/01 19:11:15;;;;;;;11.27;6.30;;;;;;;;;;10382116;28;20566;-69
2023/06/01 19:16:15;;;;;;;12.20;6.22;;;;;;;;;;10383656;28;20295;-70
2023/06/01 19:21:19;;;;;;;10.95;6.07;;;;;;;;;;10382084;28;20220;-70
2023/06/01 19:26:21;;;;;;;14.48;7.03;;;;;;;;;;10378473;28;20219;-70
2023/06/01 19:31:22;;;;;;;10.25;7.07;;;;;;;;;;10395608;28;20100;-69
2023/06/01 19:36:35;;;;;;;9.73;6.88;;;;;;;;;;10384019;28;20355;-69
2023/06/01 19:41:35;;;;;;;11.45;6.43;;;;;;;;;;10389294;28;20033;-69
2023/06/01 19:46:36;;;;;;;11.60;6.22;;;;;;;;;;10391325;28;20118;-69
2023/06/01 19:51:36;;;;;;;11.05;6.93;;;;;;;;;;10380014;28;20227;-69
2023/06/01 19:56:38;;;;;;;13.20;6.60;;;;;;;;;;10386937;28;20060;-69
2023/06/01 20:01:39;;;;;;;9.80;6.18;;;;;;;;;;10393848;28;20144;-69
2023/06/01 20:06:40;;;;;;;13.95;7.07;;;;;;;;;;10391267;28;20040;-69
2023/06/01 20:11:42;;;;;;;13.70;6.32;;;;;;;;;;10383851;28;20388;-69
2023/06/01 20:16:43;;;;;;;14.98;7.05;;;;;;;;;;10451172;23;20079;-75
2023/06/01 20:21:47;;;;;;;12.40;6.33;;;;;;;;;;10442032;28;20112;-77
2023/06/01 20:27:01;;;;;;;9.70;6.32;;;;;;;;;;10430865;28;20260;-83
2023/06/01 20:32:02;;;;;;;12.30;7.00;;;;;;;;;;10445091;28;20064;-78
2023/06/01 20:37:06;;;;;;;12.82;6.45;;;;;;;;;;10425518;28;20504;-77
2023/06/01 20:42:06;;;;;;;9.73;6.40;;;;;;;;;;10424586;28;20021;-80
2023/06/01 20:47:06;;;;;;;8.20;5.68;;;;;;;;;;10428323;28;20044;-80
2023/06/01 20:52:08;;;;;;;11.80;6.53;;;;;;;;;;10433127;28;20618;-83
2023/06/01 20:57:10;;;;;;;13.15;6.97;;;;;;;;;;10454237;28;20029;-81
2023/06/01 21:02:11;;;;;;;15.65;6.53;;;;;;;;;;10427543;28;20041;-79
2023/06/01 21:07:12;;;;;;;12.18;6.28;;;;;;;;;;10426687;28;20067;-81
2023/06/01 21:12:13;;;;;;;10.60;6.10;;;;;;;;;;10424660;28;20029;-79
2023/06/01 21:17:13;;;;;;;11.07;5.65;;;;;;;;;;10435324;28;20061;-79
2023/06/01 21:22:14;;;;;;;17.30;6.23;;;;;;;;;;10420527;28;20030;-80
2023/06/01 21:27:15;;;;;;;9.30;5.63;;;;;;;;;;10411878;28;20025;-80
2023/06/01 21:32:16;;;;;;;9.45;5.88;;;;;;;;;;10437825;28;20157;-80
2023/06/01 21:37:18;;;;;;;10.00;6.28;;;;;;;;;;10420959;28;20043;-78
2023/06/01 21:42:18;;;;;;;12.70;6.10;;;;;;;;;;10421597;28;20033;-78
2023/06/01 21:47:19;;;;;;;14.13;5.63;;;;;;;;;;10410469;28;20064;-81
2023/06/01 21:52:19;;;;;;;11.27;6.70;;;;;;;;;;10427465;28;20060;-81
2023/06/01 21:57:19;;;;;;;13.67;5.40;;;;;;;;;;10407782;28;20037;-75
2023/06/01 22:02:20;;;;;;;12.60;5.63;;;;;;;;;;10418175;28;20269;-79
2023/06/01 22:07:26;;;;;;;11.73;5.78;;;;;;;;;;10425376;28;20033;-78
2023/06/01 22:12:26;;;;;;;18.63;10.48;;;;;;;;;;10421457;28;20401;-81
2023/06/01 22:17:27;;;;;;;17.40;5.87;;;;;;;;;;10402499;28;20053;-76
2023/06/01 22:22:28;;;;;;;16.73;6.03;;;;;;;;;;10430563;28;20035;-82
2023/06/01 22:27:28;;;;;;;10.53;6.30;;;;;;;;;;10418262;28;20592;-76
2023/06/01 22:32:28;;;;;;;15.13;8.50;;;;;;;;;;10415220;28;20527;-79
2023/06/01 22:37:30;;;;;;;17.13;9.50;;;;;;;;;;10441654;28;20032;-81
2023/06/01 22:42:33;;;;;;;17.27;8.60;;;;;;;;;;10403934;28;20313;-82
2023/06/01 22:47:34;;;;;;;15.25;8.68;;;;;;;;;;10418660;28;20140;-83
2023/06/01 22:52:35;;;;;;;22.50;9.68;;;;;;;;;;10434452;28;20025;-81
2023/06/01 22:57:35;;;;;;;14.82;9.35;;;;;;;;;;10395766;28;20396;-85
2023/06/01 23:02:35;;;;;;;14.80;10.33;;;;;;;;;;10415055;28;20013;-75
2023/06/01 23:07:36;;;;;;;19.77;9.15;;;;;;;;;;10412898;28;20072;-75
2023/06/01 23:12:37;;;;;;;14.55;8.82;;;;;;;;;;10405708;28;20112;-83
2023/06/01 23:17:40;;;;;;;20.20;10.20;;;;;;;;;;10414947;28;20056;-79
2023/06/01 23:22:40;;;;;;;17.73;9.02;;;;;;;;;;10424499;28;20033;-81
2023/06/01 23:27:41;;;;;;;16.50;9.55;;;;;;;;;;10417751;28;20451;-78
2023/06/01 23:32:41;;;;;;;15.68;8.77;;;;;;;;;;10431986;28;20029;-84
2023/06/01 23:37:45;;;;;;;15.47;8.80;;;;;;;;;;10410322;28;20037;-80
2023/06/01 23:42:45;;;;;;;20.02;8.88;;;;;;;;;;10409784;28;20025;-80
2023/06/01 23:47:46;;;;;;;12.77;8.70;;;;;;;;;;10406793;28;20827;-76
2023/06/01 23:52:46;;;;;;;12.93;8.48;;;;;;;;;;10403219;28;20029;-76
2023/06/01 23:57:47;;;;;;;15.50;9.77;;;;;;;;;;10392384;28;20861;-82
